No particular awareness of the weather is required.    There are no Weather-warnings


Meteo18 Weather Cam more information Meteo18 Weather Cam


Thunder radar more information blitzortung!


Rain radar more information rain snow radar


Visit our other weather sites:

Template documentation
and downloads

And another site



Weather Underground History page Text

Daily Summary for February 15, 2017 Units:  English    Metric   Both
« Previous Day
Next Day »
Daily Weekly Monthly Yearly Custom
  High: Low: Average:
Temperature: TemperatureC °F 6.6 °F 11.1 °F
Dew Point: DewpointC °F 4.4 °F 6.6 °F
Humidity: Humidity % 53 % 74 %
Wind Speed: WindSpeedKMH mph 0.0 mph 1.6 mph
Wind Gust: WindSpeedGustKMH mph - -
Wind:- - SSW
Pressure: PressurehPa in 1030.0 in -
Precipitation: 0.0 in    
Historical Graphs
 
 
Tabular Data for February 15, 2017
Time Temperature Dew Point Pressure Wind Wind Speed Wind Gust Humidity Rainfall Rate (Hourly)
TemperatureC °F DewpointC °F PressurehPa in Calm     Humidity % HourlyPrecipMM in
00:02 9.2 °F 5.9 °F 1030.0 in Calm   6.4 mph 80 % 0.0 in
00:07 9.2 °F 5.9 °F 1030.0 in Calm   6.4 mph 80 % 0.0 in
00:12 9.2 °F 6.1 °F 1030.0 in SE 1.6 mph   81 % 0.0 in
00:17 9.4 °F 6.1 °F 1030.4 in SSE 1.6 mph   80 % 0.0 in
00:22 9.4 °F 6.1 °F 1030.4 in SSE 1.6 mph 3.2 mph 80 % 0.0 in
00:27 9.4 °F 5.9 °F 1030.4 in Calm   3.2 mph 79 % 0.0 in
00:32 9.5 °F 6.0 °F 1030.4 in Calm   4.8 mph 79 % 0.0 in
00:37 9.6 °F 6.1 °F 1030.4 in Calm   4.8 mph 79 % 0.0 in
00:42 9.6 °F 6.1 °F 1030.4 in Calm   4.8 mph 79 % 0.0 in
00:47 9.4 °F 6.1 °F 1030.4 in Calm   4.8 mph 80 % 0.0 in
00:52 9.4 °F 6.1 °F 1030.4 in Calm     80 % 0.0 in
00:57 9.4 °F 5.9 °F 1030.4 in Calm     79 % 0.0 in
01:02 9.4 °F 5.9 °F 1030.4 in Calm   1.6 mph 79 % 0.0 in
01:07 9.3 °F 6.0 °F 1030.4 in Calm   1.6 mph 80 % 0.0 in
01:12 9.2 °F 5.9 °F 1030.7 in SE 3.2 mph 3.2 mph 80 % 0.0 in
01:17 9.3 °F 6.0 °F 1030.4 in Calm   4.8 mph 80 % 0.0 in
01:22 9.3 °F 6.0 °F 1030.4 in South 1.6 mph 4.8 mph 80 % 0.0 in
01:27 9.3 °F 6.0 °F 1030.4 in Calm   4.8 mph 80 % 0.0 in
01:37 9.3 °F 6.0 °F 1030.7 in Calm   3.2 mph 80 % 0.0 in
01:42 9.3 °F 6.0 °F 1030.7 in ESE 1.6 mph 3.2 mph 80 % 0.0 in
01:47 9.3 °F 5.8 °F 1030.7 in Calm   3.2 mph 79 % 0.0 in
01:57 9.2 °F 5.7 °F 1030.7 in Calm   4.8 mph 79 % 0.0 in
02:02 9.2 °F 5.9 °F 1030.7 in Calm   4.8 mph 80 % 0.0 in
02:12 9.0 °F 5.7 °F 1030.7 in Calm   4.8 mph 80 % 0.0 in
02:17 8.9 °F 5.6 °F 1030.7 in Calm   4.8 mph 80 % 0.0 in
02:22 8.9 °F 5.6 °F 1030.7 in Calm   4.8 mph 80 % 0.0 in
02:32 8.9 °F 5.6 °F 1030.7 in Calm   4.8 mph 80 % 0.0 in
02:42 8.8 °F 5.5 °F 1030.7 in SW 1.6 mph 6.4 mph 80 % 0.0 in
02:52 8.4 °F 5.5 °F 1031.0 in SW 3.2 mph 4.8 mph 82 % 0.0 in
03:02 8.7 °F 5.6 °F 1030.7 in WSW 3.2 mph 6.4 mph 81 % 0.0 in
03:12 8.9 °F 5.6 °F 1030.7 in SSE 3.2 mph 8.0 mph 80 % 0.0 in
03:17 9.0 °F 5.7 °F 1030.7 in Calm   11.3 mph 80 % 0.0 in
03:22 9.1 °F 5.7 °F 1030.7 in SSE 4.8 mph 11.3 mph 79 % 0.0 in
03:27 8.9 °F 5.6 °F 1031.0 in Calm   11.3 mph 80 % 0.0 in
03:32 8.8 °F 5.5 °F 1030.7 in SSW 1.6 mph 9.7 mph 80 % 0.0 in
03:42 8.6 °F 5.5 °F 1030.7 in SW 1.6 mph 4.8 mph 81 % 0.0 in
03:52 8.5 °F 5.4 °F 1031.0 in Calm   3.2 mph 81 % 0.0 in
03:57 8.4 °F 5.3 °F 1031.0 in Calm   3.2 mph 81 % 0.0 in
04:02 8.3 °F 5.2 °F 1031.0 in Calm   3.2 mph 81 % 0.0 in
04:12 8.2 °F 5.3 °F 1031.0 in Calm   1.6 mph 82 % 0.0 in
04:17 8.2 °F 5.3 °F 1031.0 in Calm   1.6 mph 82 % 0.0 in
04:22 8.3 °F 5.4 °F 1031.0 in Calm   1.6 mph 82 % 0.0 in
04:27 8.1 °F 5.4 °F 1031.0 in Calm   1.6 mph 83 % 0.0 in
04:32 7.9 °F 5.4 °F 1031.0 in Calm     84 % 0.0 in
04:42 8.2 °F 5.5 °F 1031.0 in Calm   3.2 mph 83 % 0.0 in
04:47 8.2 °F 5.3 °F 1031.0 in Calm   3.2 mph 82 % 0.0 in
04:52 8.3 °F 5.4 °F 1031.4 in Calm   3.2 mph 82 % 0.0 in
04:57 8.3 °F 5.4 °F 1031.4 in SE 1.6 mph 3.2 mph 82 % 0.0 in
05:02 8.3 °F 5.4 °F 1031.4 in Calm   3.2 mph 82 % 0.0 in
05:12 8.3 °F 5.4 °F 1031.4 in Calm   3.2 mph 82 % 0.0 in
05:22 8.2 °F 5.3 °F 1031.4 in Calm   3.2 mph 82 % 0.0 in
05:32 8.1 °F 5.2 °F 1031.7 in Calm     82 % 0.0 in
05:42 8.1 °F 5.2 °F 1031.7 in Calm     82 % 0.0 in
05:52 7.7 °F 5.2 °F 1031.7 in Calm     84 % 0.0 in
05:57 7.8 °F 5.1 °F 1031.7 in Calm   4.8 mph 83 % 0.0 in
06:02 7.9 °F 5.2 °F 1031.7 in Calm   4.8 mph 83 % 0.0 in
06:12 7.9 °F 5.0 °F 1031.7 in SSE 1.6 mph 4.8 mph 82 % 0.0 in
06:17 8.1 °F 5.2 °F 1031.7 in Calm   4.8 mph 82 % 0.0 in
06:22 8.1 °F 5.2 °F 1032.1 in SSE 1.6 mph 4.8 mph 82 % 0.0 in
06:32 7.9 °F 5.0 °F 1032.1 in Calm   4.8 mph 82 % 0.0 in
06:42 8.1 °F 5.2 °F 1032.1 in SW 1.6 mph 3.2 mph 82 % 0.0 in
06:52 8.1 °F 5.2 °F 1032.1 in SSE 1.6 mph 3.2 mph 82 % 0.0 in
06:57 7.9 °F 5.0 °F 1032.1 in Calm   3.2 mph 82 % 0.0 in
07:02 7.8 °F 5.1 °F 1032.1 in Calm   3.2 mph 83 % 0.0 in
07:12 7.8 °F 5.1 °F 1032.1 in Calm   1.6 mph 83 % 0.0 in
07:17 7.8 °F 5.1 °F 1032.1 in Calm   3.2 mph 83 % 0.0 in
07:22 7.7 °F 5.0 °F 1032.1 in Calm   3.2 mph 83 % 0.0 in
07:32 7.6 °F 4.9 °F 1032.1 in Calm   3.2 mph 83 % 0.0 in
07:42 7.6 °F 5.1 °F 1032.4 in Calm   1.6 mph 84 % 0.0 in
07:47 7.5 °F 5.0 °F 1032.4 in Calm   1.6 mph 84 % 0.0 in
07:52 7.4 °F 4.9 °F 1032.4 in Calm   1.6 mph 84 % 0.0 in
07:57 7.3 °F 4.8 °F 1032.4 in Calm     84 % 0.0 in
08:02 7.2 °F 4.7 °F 1032.4 in Calm     84 % 0.0 in
08:07 7.1 °F 4.7 °F 1032.4 in Calm     85 % 0.0 in
08:12 7.1 °F 4.9 °F 1032.4 in Calm     86 % 0.0 in
08:22 7.1 °F 4.7 °F 1032.7 in Calm     85 % 0.0 in
08:32 7.1 °F 4.9 °F 1033.1 in Calm     86 % 0.0 in
08:42 6.6 °F 4.4 °F 1033.1 in Calm     86 % 0.0 in
08:52 7.1 °F 4.9 °F 1033.1 in Calm     86 % 0.0 in
09:02 7.7 °F 5.2 °F 1033.1 in Calm     84 % 0.0 in
09:12 8.1 °F 5.4 °F 1033.4 in Calm     83 % 0.0 in
09:17 8.7 °F 6.1 °F 1033.4 in Calm     84 % 0.0 in
09:22 9.3 °F 6.0 °F 1033.4 in Calm     80 % 0.0 in
09:32 9.6 °F 6.0 °F 1033.4 in Calm     78 % 0.0 in
09:42 9.9 °F 6.1 °F 1033.4 in Calm     77 % 0.0 in
09:47 10.2 °F 6.2 °F 1033.4 in Calm     76 % 0.0 in
09:52 9.7 °F 5.7 °F 1033.4 in SW 1.6 mph   76 % 0.0 in
09:57 9.7 °F 6.0 °F 1033.4 in Calm   3.2 mph 78 % 0.0 in
10:02 9.9 °F 6.1 °F 1033.4 in Calm   3.2 mph 77 % 0.0 in
10:12 10.2 °F 6.2 °F 1033.7 in Calm   3.2 mph 76 % 0.0 in
10:17 10.1 °F 6.3 °F 1033.7 in SSW 1.6 mph 3.2 mph 77 % 0.0 in
10:22 10.4 °F 6.7 °F 1033.7 in SW 1.6 mph 3.2 mph 78 % 0.0 in
10:32 10.5 °F 6.4 °F 1033.7 in SE 3.2 mph 6.4 mph 76 % 0.0 in
10:42 11.0 °F 6.7 °F 1033.7 in South 3.2 mph 6.4 mph 75 % 0.0 in
10:47 11.2 °F 6.9 °F 1033.7 in SSE 1.6 mph 4.8 mph 75 % 0.0 in
10:52 11.4 °F 6.9 °F 1033.7 in SSW 3.2 mph 4.8 mph 74 % 0.0 in
11:02 11.8 °F 7.5 °F 1033.4 in SSE 3.2 mph 4.8 mph 75 % 0.0 in
11:12 12.2 °F 7.3 °F 1033.4 in ESE 4.8 mph 8.0 mph 72 % 0.0 in
11:22 12.7 °F 7.8 °F 1033.4 in SE 4.8 mph 6.4 mph 72 % 0.0 in
11:32 13.2 °F 8.1 °F 1033.4 in SSE 4.8 mph 8.0 mph 71 % 0.0 in
11:42 13.4 °F 8.0 °F 1033.4 in SE 6.4 mph 8.0 mph 70 % 0.0 in
11:52 13.8 °F 8.4 °F 1033.4 in SSE 3.2 mph 9.7 mph 70 % 0.0 in
11:57 13.9 °F 8.1 °F 1033.4 in South 4.8 mph 11.3 mph 68 % 0.0 in
12:02 13.9 °F 7.9 °F 1033.7 in SSE 8.0 mph 11.3 mph 67 % 0.0 in
12:12 14.1 °F 8.3 °F 1033.4 in South 9.7 mph 12.9 mph 68 % 0.0 in
12:17 14.1 °F 8.1 °F 1033.4 in South 6.4 mph 12.9 mph 67 % 0.0 in
12:22 14.1 °F 8.7 °F 1033.4 in SSE 4.8 mph 12.9 mph 70 % 0.0 in
12:32 14.2 °F 8.8 °F 1033.4 in South 4.8 mph 14.5 mph 70 % 0.0 in
12:42 14.3 °F 8.3 °F 1033.4 in SSE 3.2 mph 16.1 mph 67 % 0.0 in
12:52 14.7 °F 8.6 °F 1033.4 in South 6.4 mph 12.9 mph 67 % 0.0 in
12:57 14.8 °F 8.7 °F 1033.4 in SSE 3.2 mph 12.9 mph 67 % 0.0 in
13:02 14.8 °F 8.7 °F 1033.4 in SSW 6.4 mph 12.9 mph 67 % 0.0 in
13:12 15.0 °F 8.5 °F 1033.1 in SSW 1.6 mph 14.5 mph 65 % 0.0 in
13:17 15.1 °F 8.6 °F 1033.1 in SSW 1.6 mph 14.5 mph 65 % 0.0 in
13:22 15.3 °F 8.5 °F 1033.1 in SE 4.8 mph 14.5 mph 64 % 0.0 in
13:32 15.3 °F 9.0 °F 1033.1 in SSW 6.4 mph 9.7 mph 66 % 0.0 in
13:42 15.6 °F 8.6 °F 1033.1 in South 3.2 mph 9.7 mph 63 % 0.0 in
13:52 15.8 °F 9.0 °F 1033.1 in SSE 4.8 mph 8.0 mph 64 % 0.0 in
14:02 15.6 °F 8.8 °F 1033.1 in SSW 1.6 mph 8.0 mph 64 % 0.0 in
14:12 15.6 °F 8.8 °F 1033.1 in SSE 3.2 mph 9.7 mph 64 % 0.0 in
14:17 15.7 °F 8.4 °F 1032.7 in SE 3.2 mph 9.7 mph 62 % 0.0 in
14:22 15.8 °F 8.8 °F 1032.7 in SE 4.8 mph 9.7 mph 63 % 0.0 in
14:32 16.1 °F 9.1 °F 1032.7 in South 4.8 mph 11.3 mph 63 % 0.0 in
14:37 16.1 °F 8.6 °F 1032.7 in SSW 3.2 mph 11.3 mph 61 % 0.0 in
14:42 16.0 °F 9.0 °F 1032.7 in SE 4.8 mph 11.3 mph 63 % 0.0 in
14:47 16.2 °F 8.9 °F 1032.7 in SSW 1.6 mph 11.3 mph 62 % 0.0 in
14:52 16.3 °F 8.8 °F 1032.7 in SSE 3.2 mph 11.3 mph 61 % 0.0 in
15:02 16.4 °F 9.1 °F 1032.7 in SE 3.2 mph 11.3 mph 62 % 0.0 in
15:07 16.5 °F 9.0 °F 1032.7 in South 4.8 mph 11.3 mph 61 % 0.0 in
15:12 16.6 °F 8.8 °F 1032.7 in SW 6.4 mph 11.3 mph 60 % 0.0 in
15:17 16.4 °F 8.6 °F 1032.7 in SE 4.8 mph 14.5 mph 60 % 0.0 in
15:22 16.6 °F 9.0 °F 1032.7 in SW 8.0 mph 14.5 mph 61 % 0.0 in
15:32 16.8 °F 8.5 °F 1032.7 in SSW 3.2 mph 14.5 mph 58 % 0.0 in
15:42 16.9 °F 8.6 °F 1032.7 in SSE 3.2 mph 11.3 mph 58 % 0.0 in
15:47 17.0 °F 9.4 °F 1032.7 in SSW 4.8 mph 9.7 mph 61 % 0.0 in
15:52 17.1 °F 8.8 °F 1032.7 in SSW 11.3 mph 11.3 mph 58 % 0.0 in
15:57 17.1 °F 8.5 °F 1032.7 in SW 4.8 mph 11.3 mph 57 % 0.0 in
16:02 17.1 °F 8.5 °F 1032.7 in SW 6.4 mph 11.3 mph 57 % 0.0 in
16:07 17.2 °F 8.9 °F 1032.4 in SSW 4.8 mph 11.3 mph 58 % 0.0 in
16:12 17.0 °F 7.9 °F 1032.4 in SE 6.4 mph 11.3 mph 55 % 0.0 in
16:17 16.9 °F 8.8 °F 1032.7 in South 3.2 mph 12.9 mph 59 % 0.0 in
16:22 17.1 °F 8.3 °F 1032.7 in SE 1.6 mph 12.9 mph 56 % 0.0 in
16:27 17.2 °F 8.9 °F 1032.4 in South 4.8 mph 9.7 mph 58 % 0.0 in
16:37 17.3 °F 8.2 °F 1032.4 in SE 6.4 mph 11.3 mph 55 % 0.0 in
16:42 17.3 °F 8.2 °F 1032.4 in South 3.2 mph 11.3 mph 55 % 0.0 in
16:47 17.4 °F 8.0 °F 1032.4 in SSE 1.6 mph 11.3 mph 54 % 0.0 in
16:52 17.3 °F 8.4 °F 1032.4 in South 4.8 mph 6.4 mph 56 % 0.0 in
16:57 17.2 °F 8.6 °F 1032.4 in SSE 3.2 mph 8.0 mph 57 % 0.0 in
17:02 17.1 °F 8.5 °F 1032.4 in SSE 3.2 mph 8.0 mph 57 % 0.0 in
17:12 17.1 °F 8.0 °F 1032.4 in SE 1.6 mph 8.0 mph 55 % 0.0 in
17:17 17.1 °F 8.3 °F 1032.4 in SE 1.6 mph 8.0 mph 56 % 0.0 in
17:22 17.2 °F 7.5 °F 1032.4 in SSE 1.6 mph 8.0 mph 53 % 0.0 in
17:32 17.0 °F 8.2 °F 1032.4 in SW 1.6 mph 4.8 mph 56 % 0.0 in
17:42 16.3 °F 8.0 °F 1032.4 in SSE 1.6 mph 3.2 mph 58 % 0.0 in
17:47 15.8 °F 7.8 °F 1032.4 in Calm   3.2 mph 59 % 0.0 in
17:52 15.5 °F 7.8 °F 1032.4 in Calm   3.2 mph 60 % 0.0 in
17:57 15.3 °F 7.8 °F 1032.4 in Calm   1.6 mph 61 % 0.0 in
18:02 15.1 °F 7.6 °F 1032.4 in Calm   1.6 mph 61 % 0.0 in
18:12 14.5 °F 7.3 °F 1032.4 in Calm     62 % 0.0 in
18:17 14.2 °F 7.5 °F 1032.4 in Calm     64 % 0.0 in
18:22 14.0 °F 7.5 °F 1032.7 in Calm     65 % 0.0 in
18:32 13.5 °F 7.0 °F 1032.7 in Calm     65 % 0.0 in
18:42 12.9 °F 6.9 °F 1032.7 in Calm     67 % 0.0 in
18:47 12.8 °F 7.0 °F 1032.7 in Calm     68 % 0.0 in
18:52 12.6 °F 7.1 °F 1032.7 in Calm     69 % 0.0 in
19:02 12.4 °F 7.1 °F 1033.1 in Calm   1.6 mph 70 % 0.0 in
19:12 11.9 °F 6.8 °F 1033.1 in WNW 1.6 mph 3.2 mph 71 % 0.0 in
19:17 12.2 °F 6.9 °F 1033.1 in WNW 1.6 mph 3.2 mph 70 % 0.0 in
19:32 12.1 °F 7.0 °F 1033.1 in Calm   3.2 mph 71 % 0.0 in
19:42 12.1 °F 7.0 °F 1033.1 in NNE 1.6 mph 3.2 mph 71 % 0.0 in
19:47 12.0 °F 6.9 °F 1033.1 in NNE 1.6 mph 1.6 mph 71 % 0.0 in
19:52 11.7 °F 6.8 °F 1033.1 in Calm   1.6 mph 72 % 0.0 in
19:57 11.2 °F 6.7 °F 1033.1 in Calm   1.6 mph 74 % 0.0 in
20:02 11.1 °F 6.8 °F 1033.1 in Calm   1.6 mph 75 % 0.0 in
20:07 11.1 °F 6.6 °F 1033.1 in Calm   1.6 mph 74 % 0.0 in
20:12 10.9 °F 6.4 °F 1033.1 in NW 1.6 mph 1.6 mph 74 % 0.0 in
20:22 10.8 °F 6.7 °F 1033.1 in NW 1.6 mph 1.6 mph 76 % 0.0 in
20:32 11.1 °F 6.8 °F 1033.1 in Calm   1.6 mph 75 % 0.0 in
20:42 10.4 °F 6.4 °F 1033.1 in NW 1.6 mph 1.6 mph 76 % 0.0 in
20:52 10.3 °F 6.6 °F 1033.1 in Calm   1.6 mph 78 % 0.0 in
20:57 10.3 °F 6.6 °F 1033.1 in Calm   1.6 mph 78 % 0.0 in
21:02 10.2 °F 6.5 °F 1033.1 in North 1.6 mph 1.6 mph 78 % 0.0 in
21:12 9.7 °F 6.4 °F 1033.4 in NW 1.6 mph 1.6 mph 80 % 0.0 in
21:17 9.7 °F 6.4 °F 1033.4 in NW 1.6 mph 3.2 mph 80 % 0.0 in
21:22 10.1 °F 6.6 °F 1033.4 in NNW 4.8 mph 4.8 mph 79 % 0.0 in
21:27 10.1 °F 6.4 °F 1033.4 in North 1.6 mph 4.8 mph 78 % 0.0 in
21:37 10.1 °F 6.6 °F 1033.4 in Calm   4.8 mph 79 % 0.0 in
21:42 9.8 °F 6.3 °F 1033.4 in Calm   4.8 mph 79 % 0.0 in
21:52 9.6 °F 6.5 °F 1033.4 in Calm   1.6 mph 81 % 0.0 in
22:02 9.1 °F 6.2 °F 1033.4 in WNW 1.6 mph 1.6 mph 82 % 0.0 in
22:12 9.0 °F 6.1 °F 1033.4 in WNW 1.6 mph 3.2 mph 82 % 0.0 in
22:17 8.6 °F 6.0 °F 1033.4 in Calm   3.2 mph 84 % 0.0 in
22:22 8.6 °F 6.2 °F 1033.4 in Calm   1.6 mph 85 % 0.0 in
22:32 8.8 °F 6.2 °F 1033.4 in North 1.6 mph 1.6 mph 84 % 0.0 in
22:37 8.7 °F 6.1 °F 1033.4 in North 1.6 mph 3.2 mph 84 % 0.0 in
22:42 8.7 °F 6.1 °F 1033.4 in Calm   3.2 mph 84 % 0.0 in
22:47 8.8 °F 6.2 °F 1033.4 in Calm   3.2 mph 84 % 0.0 in
22:52 8.5 °F 5.8 °F 1033.4 in Calm   3.2 mph 83 % 0.0 in
23:02 8.2 °F 5.7 °F 1033.4 in Calm   1.6 mph 84 % 0.0 in
23:12 7.9 °F 5.7 °F 1033.4 in Calm   1.6 mph 86 % 0.0 in
23:22 7.6 °F 5.4 °F 1033.4 in WNW 1.6 mph 1.6 mph 86 % 0.0 in
23:32 7.6 °F 5.9 °F 1033.4 in Calm   3.2 mph 89 % 0.0 in
23:37 7.7 °F 6.0 °F 1033.4 in Calm   3.2 mph 89 % 0.0 in
23:42 7.7 °F 5.8 °F 1033.4 in Calm   3.2 mph 88 % 0.0 in
23:47 7.7 °F 6.0 °F 1033.4 in Calm   1.6 mph 89 % 0.0 in
23:52 7.6 °F 5.9 °F 1033.4 in WNW 1.6 mph 1.6 mph 89 % 0.0 in
Meteo18
Compliments of Weather Underground - 4 mb

Script developed by  Jim McMurry - jmcmurry@mwt.net Adapted for the template by  Wim van der Kuil - Leuven-Template.eu

You find our weather info also at:

European Weather Network

Weather Underground

Equipment we use:

Weather-station
Davis Vue

Weather-program
Meteobridge

Weather-server
Raspberry PI 2 B+

Provider
1 and 1

Davis Vue

Meteobridge

Raspberry PI 2 B+

1 and 1